createdAt,value
2017-12-19T00:00:03.338Z,1.50
2017-12-19T00:00:37.006Z,1.50
2017-12-19T00:01:10.375Z,1.50
2017-12-19T00:01:44.039Z,1.50
2017-12-19T00:02:17.397Z,1.50
2017-12-19T00:02:51.080Z,1.50
2017-12-19T00:03:24.443Z,1.50
2017-12-19T00:03:58.118Z,1.50
2017-12-19T00:04:31.792Z,1.50
2017-12-19T00:05:05.890Z,1.50
2017-12-19T00:05:40.323Z,1.60
2017-12-19T00:06:13.665Z,1.50
2017-12-19T00:06:47.010Z,1.60
2017-12-19T00:07:20.390Z,1.60
2017-12-19T00:07:54.079Z,1.60
2017-12-19T00:08:27.738Z,1.50
2017-12-19T00:09:01.410Z,1.50
2017-12-19T00:09:36.227Z,1.60
2017-12-19T00:10:10.018Z,1.60
2017-12-19T00:10:43.832Z,1.60
2017-12-19T00:11:17.498Z,1.60
2017-12-19T00:11:51.995Z,1.60
2017-12-19T00:12:26.099Z,1.60
2017-12-19T00:13:00.225Z,1.60
2017-12-19T00:13:33.919Z,1.60
2017-12-19T00:14:07.637Z,1.60
2017-12-19T00:14:41.343Z,1.60
2017-12-19T00:15:15.106Z,1.60
2017-12-19T00:15:48.777Z,1.60
2017-12-19T00:16:22.539Z,1.60
2017-12-19T00:16:56.220Z,1.60
2017-12-19T00:17:29.574Z,1.60
2017-12-19T00:18:02.910Z,1.60
2017-12-19T00:18:37.353Z,1.60
2017-12-19T00:19:11.043Z,1.60
2017-12-19T00:19:44.440Z,1.60
2017-12-19T00:20:18.117Z,1.60
2017-12-19T00:20:51.130Z,1.60
2017-12-19T00:21:24.130Z,1.60
2017-12-19T00:21:57.897Z,1.60
2017-12-19T00:22:39.690Z,1.60
2017-12-19T00:23:13.282Z,1.60
2017-12-19T00:23:47.076Z,1.60
2017-12-19T00:24:20.914Z,1.60
2017-12-19T00:24:54.254Z,1.60
2017-12-19T00:25:28.026Z,1.60
2017-12-19T00:26:01.028Z,1.60
2017-12-19T00:26:34.056Z,1.60
2017-12-19T00:27:07.388Z,1.60
2017-12-19T00:27:40.775Z,1.60
2017-12-19T00:28:14.454Z,1.60
2017-12-19T00:28:47.871Z,1.60
2017-12-19T00:29:21.553Z,1.60
2017-12-19T00:29:55.291Z,1.60
2017-12-19T00:30:29.410Z,1.60
2017-12-19T00:31:02.765Z,1.60
2017-12-19T00:31:36.908Z,1.70
2017-12-19T00:32:10.592Z,1.60
2017-12-19T00:32:44.271Z,1.70
2017-12-19T00:33:18.719Z,1.70
2017-12-19T00:33:52.067Z,1.70
2017-12-19T00:34:26.166Z,1.70
2017-12-19T00:34:59.755Z,1.60
2017-12-19T00:35:33.443Z,1.70
2017-12-19T00:36:07.538Z,1.60
2017-12-19T00:36:41.217Z,1.60
2017-12-19T00:37:15.425Z,1.60
2017-12-19T00:37:49.867Z,1.70
2017-12-19T00:38:23.288Z,1.60
2017-12-19T00:38:57.126Z,1.60
2017-12-19T00:39:30.834Z,1.70
2017-12-19T00:40:03.880Z,1.70
2017-12-19T00:40:37.989Z,1.70
2017-12-19T00:41:11.330Z,1.60
2017-12-19T00:41:45.015Z,1.70
2017-12-19T00:42:18.367Z,1.70
2017-12-19T00:42:52.051Z,1.70
2017-12-19T00:43:25.763Z,1.70
2017-12-19T00:43:59.455Z,1.70
2017-12-19T00:44:33.127Z,1.70
2017-12-19T00:45:06.503Z,1.70
2017-12-19T00:45:40.166Z,1.70
2017-12-19T00:46:13.840Z,1.70
2017-12-19T00:46:48.269Z,1.70
2017-12-19T00:47:21.947Z,1.70
2017-12-19T00:47:56.434Z,1.70
2017-12-19T00:48:30.892Z,1.70
2017-12-19T00:49:04.557Z,1.70
2017-12-19T00:49:38.690Z,1.70
2017-12-19T00:50:12.271Z,1.70
2017-12-19T00:50:45.716Z,1.70
2017-12-19T00:51:20.163Z,1.70
2017-12-19T00:51:53.830Z,1.70
2017-12-19T00:52:27.170Z,1.70
2017-12-19T00:53:00.830Z,1.70
2017-12-19T00:53:34.518Z,1.70
2017-12-19T00:54:08.185Z,1.70
2017-12-19T00:54:41.515Z,1.70
2017-12-19T00:55:15.542Z,1.70
2017-12-19T00:55:49.987Z,1.70
2017-12-19T00:56:23.677Z,1.70
2017-12-19T00:56:56.684Z,1.70
2017-12-19T00:57:30.251Z,1.70
2017-12-19T00:58:03.253Z,1.70
2017-12-19T00:58:36.293Z,1.70
2017-12-19T00:59:09.637Z,1.70
2017-12-19T00:59:44.076Z,1.70
2017-12-19T01:00:17.782Z,1.70
2017-12-19T01:00:51.461Z,1.70
2017-12-19T01:01:25.140Z,1.70
2017-12-19T01:01:58.799Z,1.70
2017-12-19T01:02:33.234Z,1.70
2017-12-19T01:03:06.954Z,1.70
2017-12-19T01:03:40.308Z,1.70
2017-12-19T01:04:14.010Z,1.70
2017-12-19T01:04:47.875Z,1.70
2017-12-19T01:05:21.848Z,1.70
2017-12-19T01:05:55.622Z,1.70
2017-12-19T01:06:29.278Z,1.70
2017-12-19T01:07:02.730Z,1.70
2017-12-19T01:07:37.163Z,1.70
2017-12-19T01:08:10.483Z,1.70
2017-12-19T01:08:44.142Z,1.70
2017-12-19T01:09:17.798Z,1.70
2017-12-19T01:09:52.238Z,1.70
2017-12-19T01:10:26.325Z,1.70
2017-12-19T01:10:59.658Z,1.70
2017-12-19T01:11:33.325Z,1.70
2017-12-19T01:12:07.020Z,1.70
2017-12-19T01:12:40.721Z,1.70
2017-12-19T01:13:14.375Z,1.70
2017-12-19T01:13:47.733Z,1.70
2017-12-19T01:14:22.183Z,1.70
2017-12-19T01:14:55.871Z,1.70
2017-12-19T01:15:29.597Z,1.70
2017-12-19T01:16:04.042Z,1.70
2017-12-19T01:16:37.763Z,1.70
2017-12-19T01:17:12.371Z,1.70
2017-12-19T01:17:45.759Z,1.70
2017-12-19T01:18:19.110Z,1.70
2017-12-19T01:18:52.840Z,1.70
2017-12-19T01:19:27.418Z,1.70
2017-12-19T01:20:01.142Z,1.70
2017-12-19T01:20:34.839Z,1.70
2017-12-19T01:21:08.518Z,1.70
2017-12-19T01:21:42.187Z,1.70
2017-12-19T01:22:15.891Z,1.70
2017-12-19T01:22:49.562Z,1.70
2017-12-19T01:23:23.217Z,1.70
2017-12-19T01:23:57.653Z,1.70
2017-12-19T01:24:31.318Z,1.70
2017-12-19T01:25:05.755Z,1.70
2017-12-19T01:25:39.703Z,1.70
2017-12-19T01:26:14.133Z,1.70
2017-12-19T01:26:47.829Z,1.70
2017-12-19T01:27:21.499Z,1.70
2017-12-19T01:27:55.934Z,1.70
2017-12-19T01:28:29.589Z,1.70
2017-12-19T01:29:04.013Z,1.70
2017-12-19T01:29:38.453Z,1.70
2017-12-19T01:30:12.147Z,1.70
2017-12-19T01:30:45.854Z,1.70
2017-12-19T01:31:19.533Z,1.70
2017-12-19T01:31:53.224Z,1.70
2017-12-19T01:32:26.912Z,1.70
2017-12-19T01:33:00.577Z,1.70
2017-12-19T01:33:34.246Z,1.70
2017-12-19T01:34:07.921Z,1.70
2017-12-19T01:34:41.599Z,1.70
2017-12-19T01:35:15.270Z,1.70
2017-12-19T01:35:48.967Z,1.70
2017-12-19T01:36:24.058Z,1.70
2017-12-19T01:36:57.734Z,1.70
2017-12-19T01:37:31.414Z,1.70
2017-12-19T01:38:05.096Z,1.70
2017-12-19T01:38:38.770Z,1.70
2017-12-19T01:39:13.211Z,1.70
2017-12-19T01:39:46.908Z,1.70
2017-12-19T01:40:20.465Z,1.70
2017-12-19T01:40:54.932Z,1.70
2017-12-19T01:41:28.610Z,1.70
2017-12-19T01:42:02.301Z,1.70
2017-12-19T01:42:35.973Z,1.70
2017-12-19T01:43:09.651Z,1.70
2017-12-19T01:43:43.333Z,1.70
2017-12-19T01:44:17.019Z,1.70
2017-12-19T01:44:50.851Z,1.70
2017-12-19T01:45:24.520Z,1.70
2017-12-19T01:45:58.594Z,1.70
2017-12-19T01:46:33.022Z,1.70
2017-12-19T01:47:07.475Z,1.70
2017-12-19T01:47:41.154Z,1.70
2017-12-19T01:48:14.813Z,1.80
2017-12-19T01:48:48.471Z,1.70
2017-12-19T01:49:22.898Z,1.80
2017-12-19T01:49:56.597Z,1.70
2017-12-19T01:50:30.262Z,1.70
2017-12-19T01:51:04.409Z,1.70
2017-12-19T01:51:38.113Z,1.70
2017-12-19T01:52:11.795Z,1.80
2017-12-19T01:52:45.483Z,1.80
2017-12-19T01:53:19.171Z,1.80
2017-12-19T01:53:52.839Z,1.80
2017-12-19T01:54:26.524Z,1.80
2017-12-19T01:55:00.214Z,1.80
2017-12-19T01:55:33.892Z,1.80
2017-12-19T01:56:08.032Z,1.80
2017-12-19T01:56:42.645Z,1.80
2017-12-19T01:57:16.342Z,1.80
2017-12-19T01:57:50.019Z,1.80
2017-12-19T01:58:23.690Z,1.80
2017-12-19T01:58:57.364Z,1.80
2017-12-19T01:59:31.046Z,1.80
2017-12-19T02:00:04.397Z,1.80
2017-12-19T02:00:37.732Z,1.80
2017-12-19T02:01:11.454Z,1.80
2017-12-19T02:01:45.146Z,1.80
2017-12-19T02:02:18.872Z,1.80
2017-12-19T02:02:53.313Z,1.80
2017-12-19T02:03:26.982Z,1.80
2017-12-19T02:04:00.659Z,1.80
2017-12-19T02:04:35.099Z,1.80
2017-12-19T02:05:08.774Z,1.80
2017-12-19T02:05:42.445Z,1.80
2017-12-19T02:06:17.173Z,1.80
2017-12-19T02:06:50.844Z,1.80
2017-12-19T02:07:25.278Z,1.80
2017-12-19T02:07:58.944Z,1.80
2017-12-19T02:08:33.385Z,1.90
2017-12-19T02:09:07.144Z,1.80
2017-12-19T02:09:41.584Z,1.80
2017-12-19T02:10:15.260Z,1.80
2017-12-19T02:10:48.936Z,1.80
2017-12-19T02:11:23.398Z,1.80
2017-12-19T02:11:57.074Z,1.80
2017-12-19T02:12:30.741Z,1.90
2017-12-19T02:13:04.403Z,1.90
2017-12-19T02:13:38.826Z,1.90
2017-12-19T02:14:12.168Z,1.90
2017-12-19T02:14:45.839Z,1.90
2017-12-19T02:15:18.849Z,1.90
2017-12-19T02:15:52.978Z,1.90
2017-12-19T02:16:26.020Z,1.90
2017-12-19T02:16:59.794Z,1.90
2017-12-19T02:17:32.808Z,1.90
2017-12-19T02:18:05.831Z,1.90
2017-12-19T02:18:39.170Z,1.90
2017-12-19T02:19:12.179Z,1.90
2017-12-19T02:19:45.196Z,1.90
2017-12-19T02:20:18.980Z,1.90
2017-12-19T02:20:52.043Z,1.90
2017-12-19T02:21:25.204Z,1.90
2017-12-19T02:21:58.282Z,1.90
2017-12-19T02:22:31.295Z,1.90
2017-12-19T02:23:05.075Z,1.90
2017-12-19T02:23:38.073Z,1.90
2017-12-19T02:24:11.866Z,1.90
2017-12-19T02:24:45.624Z,1.90
2017-12-19T02:25:18.631Z,1.90
2017-12-19T02:25:52.394Z,1.90
2017-12-19T02:26:25.396Z,1.90
2017-12-19T02:26:58.405Z,1.90
2017-12-19T02:27:31.743Z,1.90
2017-12-19T02:28:05.654Z,1.90
2017-12-19T02:28:38.667Z,1.90
2017-12-19T02:29:11.681Z,1.90
2017-12-19T02:29:45.459Z,1.90
2017-12-19T02:30:18.602Z,1.90
2017-12-19T02:30:51.600Z,1.90
2017-12-19T02:31:24.611Z,1.90
2017-12-19T02:31:57.617Z,1.90
2017-12-19T02:32:30.614Z,1.90
2017-12-19T02:33:03.717Z,1.90
2017-12-19T02:33:36.912Z,1.90
2017-12-19T02:34:10.700Z,1.90
2017-12-19T02:34:44.469Z,1.90
2017-12-19T02:35:17.474Z,1.90
2017-12-19T02:35:51.234Z,1.90
2017-12-19T02:36:24.231Z,1.90
2017-12-19T02:36:58.001Z,1.90
2017-12-19T02:37:32.837Z,1.90
2017-12-19T02:38:06.621Z,1.90
2017-12-19T02:38:39.616Z,1.90
2017-12-19T02:39:12.615Z,1.90
2017-12-19T02:39:45.671Z,1.90
2017-12-19T02:40:19.455Z,1.90
2017-12-19T02:40:53.239Z,1.90
2017-12-19T02:41:27.059Z,1.90
2017-12-19T02:42:00.071Z,1.90
2017-12-19T02:42:45.006Z,1.90
2017-12-19T02:43:21.832Z,1.90
2017-12-19T02:43:55.586Z,1.90
2017-12-19T02:44:28.593Z,1.90
2017-12-19T02:45:02.405Z,1.90
2017-12-19T02:45:35.398Z,1.90
2017-12-19T02:46:08.442Z,1.90
2017-12-19T02:46:41.478Z,1.90
2017-12-19T02:47:14.491Z,1.90
2017-12-19T02:47:47.956Z,1.90
2017-12-19T02:48:22.057Z,1.90
2017-12-19T02:48:55.814Z,1.90
2017-12-19T02:49:28.812Z,1.90
2017-12-19T02:50:01.818Z,2.00
2017-12-19T02:50:34.816Z,1.90
2017-12-19T02:51:08.249Z,1.90
2017-12-19T02:51:42.021Z,2.00
2017-12-19T02:52:15.354Z,1.90
2017-12-19T02:52:48.714Z,2.00
2017-12-19T02:53:22.483Z,2.00
2017-12-19T02:53:55.482Z,1.90
2017-12-19T02:54:29.260Z,2.00
2017-12-19T02:55:02.265Z,2.00
2017-12-19T02:55:36.239Z,2.00
2017-12-19T02:56:10.007Z,2.00
2017-12-19T02:56:43.349Z,2.00
2017-12-19T02:57:16.346Z,2.00
2017-12-19T02:57:49.362Z,2.00
2017-12-19T02:58:22.368Z,2.00
2017-12-19T02:58:55.398Z,2.00
2017-12-19T02:59:28.419Z,2.00
2017-12-19T03:00:01.428Z,2.00
2017-12-19T03:00:34.430Z,2.00
2017-12-19T03:01:08.190Z,2.00
2017-12-19T03:01:41.190Z,2.00
2017-12-19T03:02:14.948Z,2.00
2017-12-19T03:02:48.266Z,2.00
2017-12-19T03:03:22.223Z,2.00
2017-12-19T03:03:55.231Z,2.00
2017-12-19T03:04:29.017Z,2.00
2017-12-19T03:05:02.025Z,2.00
2017-12-19T03:05:35.035Z,2.00
2017-12-19T03:06:08.062Z,2.00
2017-12-19T03:06:41.117Z,2.00
2017-12-19T03:07:14.878Z,2.00
2017-12-19T03:07:47.894Z,2.00
2017-12-19T03:08:21.675Z,2.00
2017-12-19T03:08:55.432Z,2.00
2017-12-19T03:09:28.436Z,2.00
2017-12-19T03:10:01.442Z,2.00
2017-12-19T03:10:34.439Z,2.00
2017-12-19T03:11:07.768Z,2.00
2017-12-19T03:11:40.782Z,2.00
2017-12-19T03:12:13.781Z,2.00
2017-12-19T03:12:46.762Z,2.00
2017-12-19T03:13:19.766Z,2.00
2017-12-19T03:13:52.926Z,2.00
2017-12-19T03:14:25.926Z,2.00
2017-12-19T03:14:59.811Z,2.00
2017-12-19T03:15:33.580Z,2.00
2017-12-19T03:16:07.354Z,2.00
2017-12-19T03:16:40.370Z,2.00
2017-12-19T03:17:13.374Z,2.00
2017-12-19T03:17:46.382Z,2.00
2017-12-19T03:18:19.384Z,2.00
2017-12-19T03:18:52.388Z,2.00
2017-12-19T03:19:25.403Z,2.00
2017-12-19T03:19:58.454Z,2.00
2017-12-19T03:20:31.463Z,2.00
2017-12-19T03:21:04.463Z,2.00
2017-12-19T03:21:38.223Z,2.00
2017-12-19T03:22:11.230Z,2.00
2017-12-19T03:22:45.017Z,2.00
2017-12-19T03:23:18.035Z,2.00
2017-12-19T03:23:51.029Z,2.00
2017-12-19T03:24:24.063Z,2.00
2017-12-19T03:24:57.089Z,2.10
2017-12-19T03:25:30.109Z,2.00
2017-12-19T03:26:03.891Z,2.00
2017-12-19T03:26:37.671Z,2.10
2017-12-19T03:27:11.439Z,2.00
2017-12-19T03:27:44.447Z,2.00
2017-12-19T03:28:17.468Z,2.10
2017-12-19T03:28:50.491Z,2.00
2017-12-19T03:29:24.540Z,2.10
2017-12-19T03:29:57.562Z,2.00
2017-12-19T03:30:31.334Z,2.10
2017-12-19T03:31:05.143Z,2.00
2017-12-19T03:31:38.930Z,2.10
2017-12-19T03:32:11.932Z,2.10
2017-12-19T03:32:44.948Z,2.10
2017-12-19T03:33:17.958Z,2.10
2017-12-19T03:33:51.737Z,2.10
2017-12-19T03:34:24.879Z,2.10
2017-12-19T03:34:57.892Z,2.10
2017-12-19T03:35:30.899Z,2.10
2017-12-19T03:36:03.904Z,2.10
2017-12-19T03:36:36.921Z,2.10
2017-12-19T03:37:10.702Z,2.10
2017-12-19T03:37:44.473Z,2.10
2017-12-19T03:38:17.507Z,2.10
2017-12-19T03:38:50.523Z,2.10
2017-12-19T03:39:23.522Z,2.10
2017-12-19T03:39:57.628Z,2.10
2017-12-19T03:40:31.419Z,2.10
2017-12-19T03:41:05.187Z,2.10
2017-12-19T03:41:38.183Z,2.10
2017-12-19T03:42:12.004Z,2.10
2017-12-19T03:42:45.018Z,2.10
2017-12-19T03:43:18.025Z,2.10
2017-12-19T03:43:51.794Z,2.10
2017-12-19T03:44:24.791Z,2.10
2017-12-19T03:44:59.258Z,2.10
2017-12-19T03:45:32.273Z,2.10
2017-12-19T03:46:05.287Z,2.20
2017-12-19T03:46:38.319Z,2.10
2017-12-19T03:47:11.331Z,2.20
2017-12-19T03:47:44.343Z,2.20
2017-12-19T03:48:17.339Z,2.10
2017-12-19T03:48:50.330Z,2.20
2017-12-19T03:49:24.117Z,2.20
2017-12-19T03:49:57.899Z,2.10
2017-12-19T03:50:31.677Z,2.20
2017-12-19T03:51:04.683Z,2.10
2017-12-19T03:51:37.694Z,2.20
2017-12-19T03:52:10.706Z,2.20
2017-12-19T03:52:43.719Z,2.20
2017-12-19T03:53:16.747Z,2.20
2017-12-19T03:53:49.761Z,2.20
2017-12-19T03:54:22.773Z,2.20
2017-12-19T03:54:55.778Z,2.20
2017-12-19T03:55:29.583Z,2.20
2017-12-19T03:56:03.367Z,2.20
2017-12-19T03:56:37.135Z,2.20
2017-12-19T03:57:10.170Z,2.20
2017-12-19T03:57:43.212Z,2.20
2017-12-19T03:58:16.988Z,2.20
2017-12-19T03:58:49.996Z,2.20
2017-12-19T03:59:23.001Z,2.20
2017-12-19T03:59:56.017Z,2.20
2017-12-19T04:00:29.013Z,2.20
2017-12-19T04:01:03.070Z,2.20
2017-12-19T04:01:36.074Z,2.20
2017-12-19T04:02:09.963Z,2.20
2017-12-19T04:02:43.739Z,2.20
2017-12-19T04:03:16.761Z,2.20
2017-12-19T04:03:49.779Z,2.20
2017-12-19T04:04:22.790Z,2.20
2017-12-19T04:04:55.811Z,2.20
2017-12-19T04:05:28.811Z,2.20
2017-12-19T04:06:01.818Z,2.20
2017-12-19T04:06:35.612Z,2.20
2017-12-19T04:07:08.647Z,2.20
2017-12-19T04:07:41.649Z,2.20
2017-12-19T04:08:14.664Z,2.20
2017-12-19T04:08:47.675Z,2.20
2017-12-19T04:09:20.712Z,2.20
2017-12-19T04:09:53.737Z,2.20
2017-12-19T04:10:27.509Z,2.20
2017-12-19T04:11:00.514Z,2.20
2017-12-19T04:11:34.310Z,2.20
2017-12-19T04:12:07.327Z,2.20
2017-12-19T04:12:40.336Z,2.30
2017-12-19T04:13:14.118Z,2.30
2017-12-19T04:13:47.131Z,2.20
2017-12-19T04:14:20.401Z,2.30
2017-12-19T04:14:54.181Z,2.30
2017-12-19T04:15:27.959Z,2.30
2017-12-19T04:16:00.969Z,2.30
2017-12-19T04:16:34.246Z,2.30
2017-12-19T04:17:07.252Z,2.30
2017-12-19T04:17:40.255Z,2.20
2017-12-19T04:18:13.265Z,2.20
2017-12-19T04:18:46.289Z,2.20
2017-12-19T04:19:19.289Z,2.30
2017-12-19T04:19:52.314Z,2.20
2017-12-19T04:20:26.594Z,2.30
2017-12-19T04:21:00.374Z,2.30
2017-12-19T04:21:35.188Z,2.30
2017-12-19T04:22:09.636Z,2.30
2017-12-19T04:22:42.650Z,2.20
2017-12-19T04:23:15.748Z,2.30
2017-12-19T04:23:49.856Z,2.30
2017-12-19T04:24:23.627Z,2.30
2017-12-19T04:24:56.964Z,2.30
2017-12-19T04:25:30.311Z,2.30
2017-12-19T04:26:04.066Z,2.30
2017-12-19T04:26:37.387Z,2.20
2017-12-19T04:27:10.449Z,2.20
2017-12-19T04:27:44.239Z,2.30
2017-12-19T04:28:18.006Z,2.30
2017-12-19T04:28:51.105Z,2.20
2017-12-19T04:29:24.875Z,2.30
2017-12-19T04:29:57.911Z,2.30
2017-12-19T04:30:30.918Z,2.30
2017-12-19T04:31:03.927Z,2.30
2017-12-19T04:31:38.018Z,2.30
2017-12-19T04:32:11.786Z,2.30
2017-12-19T04:32:44.811Z,2.30
2017-12-19T04:33:18.482Z,2.30
2017-12-19T04:33:52.253Z,2.30
2017-12-19T04:34:25.584Z,2.30
2017-12-19T04:34:58.652Z,2.30
2017-12-19T04:35:31.673Z,2.30
2017-12-19T04:36:04.684Z,2.30
2017-12-19T04:36:38.778Z,2.30
2017-12-19T04:37:12.600Z,2.30
2017-12-19T04:37:45.617Z,2.30
2017-12-19T04:38:18.618Z,2.30
2017-12-19T04:38:52.718Z,2.30
2017-12-19T04:39:26.849Z,2.30
2017-12-19T04:39:59.858Z,2.30
2017-12-19T04:40:32.854Z,2.30
2017-12-19T04:41:06.958Z,2.30
2017-12-19T04:41:40.747Z,2.30
2017-12-19T04:42:14.515Z,2.30
2017-12-19T04:42:47.529Z,2.30
2017-12-19T04:43:20.540Z,2.30
2017-12-19T04:43:53.574Z,2.30
2017-12-19T04:44:27.327Z,2.30
2017-12-19T04:45:00.327Z,2.30
2017-12-19T04:45:34.203Z,2.30
2017-12-19T04:46:07.247Z,2.30
2017-12-19T04:46:40.246Z,2.30
2017-12-19T04:47:13.251Z,2.30
2017-12-19T04:47:47.154Z,2.30
2017-12-19T04:48:20.150Z,2.30
2017-12-19T04:48:53.141Z,2.40
2017-12-19T04:49:26.197Z,2.30
2017-12-19T04:49:59.308Z,2.30
2017-12-19T04:50:33.347Z,2.30
2017-12-19T04:51:06.688Z,2.40
2017-12-19T04:51:39.690Z,2.40
2017-12-19T04:52:17.538Z,2.40
2017-12-19T04:52:50.894Z,2.40
2017-12-19T04:53:24.238Z,2.40
2017-12-19T04:53:58.032Z,2.30
2017-12-19T04:54:31.794Z,2.40
2017-12-19T04:55:06.549Z,2.40
2017-12-19T04:55:40.318Z,2.40
2017-12-19T04:56:13.342Z,2.40
2017-12-19T04:56:46.339Z,2.40
2017-12-19T04:57:21.079Z,2.30
2017-12-19T04:57:54.178Z,2.40
2017-12-19T04:58:28.311Z,2.40
2017-12-19T04:59:01.328Z,2.40
2017-12-19T04:59:34.994Z,2.40
2017-12-19T05:00:08.029Z,2.40
2017-12-19T05:00:41.017Z,2.40
2017-12-19T05:01:14.345Z,2.40
2017-12-19T05:01:47.436Z,2.40
2017-12-19T05:02:21.573Z,2.40
2017-12-19T05:02:54.977Z,2.40
2017-12-19T05:03:28.367Z,2.40
2017-12-19T05:04:01.429Z,2.40
2017-12-19T05:04:35.428Z,2.40
2017-12-19T05:05:08.757Z,2.40
2017-12-19T05:05:42.586Z,2.40
2017-12-19T05:06:15.917Z,2.40
2017-12-19T05:06:49.246Z,2.40
2017-12-19T05:07:22.503Z,2.40
2017-12-19T05:07:57.622Z,2.50
2017-12-19T05:08:32.518Z,2.50
2017-12-19T05:09:06.015Z,2.40
2017-12-19T05:09:39.034Z,2.50
2017-12-19T05:10:12.065Z,2.50
2017-12-19T05:10:46.559Z,2.40
2017-12-19T05:11:20.404Z,2.50
2017-12-19T05:11:53.486Z,2.40
2017-12-19T05:12:26.840Z,2.50
2017-12-19T05:13:00.612Z,2.50
2017-12-19T05:13:34.835Z,2.50
2017-12-19T05:14:09.165Z,2.50
2017-12-19T05:14:42.176Z,2.40
2017-12-19T05:15:15.976Z,2.40
2017-12-19T05:15:50.513Z,2.50
2017-12-19T05:16:25.754Z,2.40
2017-12-19T05:16:58.806Z,2.50
2017-12-19T05:17:33.260Z,2.40
2017-12-19T05:18:06.386Z,2.50
2017-12-19T05:18:40.488Z,2.50
2017-12-19T05:19:14.628Z,2.50
2017-12-19T05:19:47.828Z,2.50
2017-12-19T05:20:20.818Z,2.50
2017-12-19T05:20:53.839Z,2.50
2017-12-19T05:21:26.855Z,2.50
2017-12-19T05:21:59.867Z,2.50
2017-12-19T05:22:33.658Z,2.50
2017-12-19T05:23:08.113Z,2.50
2017-12-19T05:23:41.114Z,2.50
2017-12-19T05:24:14.127Z,2.50
2017-12-19T05:24:47.140Z,2.50
2017-12-19T05:25:20.483Z,2.50
2017-12-19T05:25:54.251Z,2.50
2017-12-19T05:26:28.042Z,2.50
2017-12-19T05:27:01.806Z,2.50
2017-12-19T05:27:35.500Z,2.50
2017-12-19T05:28:08.531Z,2.50
2017-12-19T05:28:41.611Z,2.50
2017-12-19T05:29:14.615Z,2.50
2017-12-19T05:29:47.957Z,2.50
2017-12-19T05:30:21.513Z,2.50
2017-12-19T05:30:54.520Z,2.50
2017-12-19T05:31:27.510Z,2.50
2017-12-19T05:32:00.521Z,2.50
2017-12-19T05:32:33.862Z,2.50
2017-12-19T05:33:07.206Z,2.50
2017-12-19T05:33:40.208Z,2.50
2017-12-19T05:34:13.565Z,2.50
2017-12-19T05:34:47.336Z,2.50
2017-12-19T05:35:21.886Z,2.50
2017-12-19T05:35:54.893Z,2.50
2017-12-19T05:36:27.899Z,2.50
2017-12-19T05:37:01.224Z,2.50
2017-12-19T05:37:34.230Z,2.50
2017-12-19T05:38:07.568Z,2.50
2017-12-19T05:38:41.032Z,2.50
2017-12-19T05:39:14.818Z,2.50
2017-12-19T05:39:47.833Z,2.50
2017-12-19T05:40:20.842Z,2.50
2017-12-19T05:40:53.840Z,2.50
2017-12-19T05:41:26.849Z,2.50
2017-12-19T05:41:59.837Z,2.50
2017-12-19T05:42:33.174Z,2.50
2017-12-19T05:43:06.173Z,2.50
2017-12-19T05:43:39.194Z,2.50
2017-12-19T05:44:12.206Z,2.50
2017-12-19T05:44:46.315Z,2.50
2017-12-19T05:45:19.404Z,2.50
2017-12-19T05:45:52.413Z,2.50
2017-12-19T05:46:25.439Z,2.50
2017-12-19T05:46:59.214Z,2.50
2017-12-19T05:47:32.300Z,2.50
2017-12-19T05:48:06.389Z,2.50
2017-12-19T05:48:40.538Z,2.50
2017-12-19T05:49:13.586Z,2.50
2017-12-19T05:49:48.007Z,2.50
2017-12-19T05:50:21.018Z,2.50
2017-12-19T05:50:54.362Z,2.50
2017-12-19T05:51:27.358Z,2.50
2017-12-19T05:52:00.711Z,2.50
2017-12-19T05:52:34.039Z,2.50
2017-12-19T05:53:08.609Z,2.50
2017-12-19T05:53:41.834Z,2.50
2017-12-19T05:54:14.911Z,2.50
2017-12-19T05:54:48.462Z,2.50
2017-12-19T05:55:21.463Z,2.50
2017-12-19T05:55:54.564Z,2.50
2017-12-19T05:56:28.712Z,2.50
2017-12-19T05:57:01.705Z,2.50
2017-12-19T05:57:34.722Z,2.50
2017-12-19T05:58:08.817Z,2.50
2017-12-19T05:58:43.240Z,2.50
2017-12-19T05:59:16.705Z,2.50
2017-12-19T05:59:49.714Z,2.50
2017-12-19T06:00:22.746Z,2.60
2017-12-19T06:00:56.550Z,2.50
2017-12-19T06:01:30.658Z,2.50
2017-12-19T06:02:04.444Z,2.50
2017-12-19T06:02:38.579Z,2.50
2017-12-19T06:03:11.567Z,2.50
2017-12-19T06:03:44.583Z,2.50
2017-12-19T06:04:18.713Z,2.50
2017-12-19T06:04:51.776Z,2.50
2017-12-19T06:05:25.548Z,2.60
2017-12-19T06:05:59.653Z,2.60
2017-12-19T06:06:33.419Z,2.50
2017-12-19T06:07:06.822Z,2.50
2017-12-19T06:07:40.603Z,2.50
2017-12-19T06:08:13.634Z,2.50
2017-12-19T06:08:46.988Z,2.60
2017-12-19T06:09:21.109Z,2.60
2017-12-19T06:09:54.116Z,2.50
2017-12-19T06:10:27.163Z,2.60
2017-12-19T06:11:00.155Z,2.50
2017-12-19T06:11:33.292Z,2.60
2017-12-19T06:12:06.634Z,2.60
2017-12-19T06:12:39.636Z,2.60
2017-12-19T06:13:13.422Z,2.60
2017-12-19T06:13:47.417Z,2.60
2017-12-19T06:14:20.755Z,2.60
2017-12-19T06:14:53.764Z,2.60
2017-12-19T06:15:26.777Z,2.60
2017-12-19T06:15:59.820Z,2.60
2017-12-19T06:16:33.920Z,2.60
2017-12-19T06:17:07.266Z,2.60
2017-12-19T06:17:40.278Z,2.60
2017-12-19T06:18:14.056Z,2.60
2017-12-19T06:18:48.845Z,2.60
2017-12-19T06:19:21.854Z,2.60
2017-12-19T06:19:55.191Z,2.60
2017-12-19T06:20:28.195Z,2.60
2017-12-19T06:21:01.534Z,2.60
2017-12-19T06:21:34.875Z,2.60
2017-12-19T06:22:07.874Z,2.60
2017-12-19T06:22:40.877Z,2.60
2017-12-19T06:23:13.916Z,2.60
2017-12-19T06:23:46.930Z,2.60
2017-12-19T06:24:19.983Z,2.60
2017-12-19T06:24:53.663Z,2.60
2017-12-19T06:25:27.006Z,2.60
2017-12-19T06:26:01.511Z,2.60
2017-12-19T06:26:34.538Z,2.60
2017-12-19T06:27:07.539Z,2.60
2017-12-19T06:27:40.534Z,2.60
2017-12-19T06:28:13.530Z,2.60
2017-12-19T06:28:47.314Z,2.60
2017-12-19T06:29:20.336Z,2.60
2017-12-19T06:29:53.333Z,2.60
2017-12-19T06:30:26.330Z,2.60
2017-12-19T06:30:59.673Z,2.60
2017-12-19T06:31:33.009Z,2.60
2017-12-19T06:32:07.176Z,2.60
2017-12-19T06:32:40.254Z,2.60
2017-12-19T06:33:13.405Z,2.60
2017-12-19T06:33:46.747Z,2.60
2017-12-19T06:34:20.846Z,2.60
2017-12-19T06:34:54.601Z,2.60
2017-12-19T06:35:27.610Z,2.60
2017-12-19T06:36:01.384Z,2.60
2017-12-19T06:36:34.782Z,2.60
2017-12-19T06:37:07.958Z,2.60
2017-12-19T06:37:41.158Z,2.60
2017-12-19T06:38:14.159Z,2.60
2017-12-19T06:38:47.248Z,2.60
2017-12-19T06:39:20.614Z,2.60
2017-12-19T06:39:53.644Z,2.60
2017-12-19T06:40:27.406Z,2.60
2017-12-19T06:41:00.408Z,2.60
2017-12-19T06:41:34.188Z,2.70
2017-12-19T06:42:07.517Z,2.60
2017-12-19T06:42:40.865Z,2.70
2017-12-19T06:43:14.953Z,2.70
2017-12-19T06:43:49.076Z,2.70
2017-12-19T06:44:22.418Z,2.70
2017-12-19T06:44:56.103Z,2.70
2017-12-19T06:45:29.490Z,2.70
2017-12-19T06:46:02.599Z,2.70
2017-12-19T06:46:36.364Z,2.70
2017-12-19T06:47:10.482Z,2.70
2017-12-19T06:47:44.589Z,2.70
2017-12-19T06:48:18.371Z,2.70
2017-12-19T06:48:51.726Z,2.70
2017-12-19T06:49:24.735Z,2.70
2017-12-19T06:49:58.530Z,2.70
2017-12-19T06:50:32.317Z,2.70
2017-12-19T06:51:06.086Z,2.70
2017-12-19T06:51:39.090Z,2.70
2017-12-19T06:52:12.871Z,2.70
2017-12-19T06:52:46.670Z,2.70
2017-12-19T06:53:20.459Z,2.70
2017-12-19T06:53:54.246Z,2.80
2017-12-19T06:54:28.682Z,2.70
2017-12-19T06:55:02.050Z,2.70
2017-12-19T06:55:36.161Z,2.70
2017-12-19T06:56:09.159Z,2.70
2017-12-19T06:56:42.499Z,2.70
2017-12-19T06:57:16.289Z,2.80
2017-12-19T06:57:50.059Z,2.70
2017-12-19T06:58:23.061Z,2.80
2017-12-19T06:58:57.157Z,2.80
2017-12-19T06:59:30.922Z,2.80
2017-12-19T07:00:04.342Z,2.80
2017-12-19T07:00:37.685Z,2.80
2017-12-19T07:01:10.784Z,2.80
2017-12-19T07:01:44.596Z,2.80
2017-12-19T07:02:18.544Z,2.80
2017-12-19T07:02:51.868Z,2.80
2017-12-19T07:03:25.624Z,2.80
2017-12-19T07:03:58.959Z,2.80
2017-12-19T07:04:31.942Z,2.80
2017-12-19T07:05:05.458Z,2.80
2017-12-19T07:05:39.121Z,2.80
2017-12-19T07:06:12.459Z,2.80
2017-12-19T07:06:46.248Z,2.80
2017-12-19T07:07:20.038Z,2.80
2017-12-19T07:07:53.377Z,2.80
2017-12-19T07:08:26.366Z,2.80
2017-12-19T07:09:00.450Z,2.80
2017-12-19T07:09:33.450Z,2.80
2017-12-19T07:10:06.818Z,2.80
2017-12-19T07:10:40.139Z,2.80
2017-12-19T07:11:14.232Z,2.80
2017-12-19T07:11:48.000Z,2.80
2017-12-19T07:12:21.002Z,2.80
2017-12-19T07:12:55.115Z,2.80
2017-12-19T07:13:28.109Z,2.80
2017-12-19T07:14:01.784Z,2.80
2017-12-19T07:14:34.774Z,2.80
2017-12-19T07:15:08.111Z,2.80
2017-12-19T07:15:41.097Z,2.80
2017-12-19T07:16:15.524Z,2.80
2017-12-19T07:16:48.854Z,2.80
2017-12-19T07:17:21.878Z,2.80
2017-12-19T07:17:54.886Z,2.80
2017-12-19T07:18:27.870Z,2.80
2017-12-19T07:19:01.208Z,2.80
2017-12-19T07:19:34.549Z,2.80
2017-12-19T07:20:08.254Z,2.80
2017-12-19T07:20:42.023Z,2.80
2017-12-19T07:21:15.042Z,2.80
2017-12-19T07:21:48.367Z,2.80
2017-12-19T07:22:21.385Z,2.80
2017-12-19T07:22:55.149Z,2.80
2017-12-19T07:23:28.519Z,2.80
2017-12-19T07:24:01.858Z,2.80
2017-12-19T07:24:34.871Z,2.80
2017-12-19T07:25:08.122Z,2.80
2017-12-19T07:25:41.158Z,2.80
2017-12-19T07:26:14.949Z,2.80